Time;durP1;ratioP1;P1;durP2;ratioP2;P2;SDS_P1;SDS_P2;PMS_P1;PMS_P2;Temp;Humidity;BMP_temperature;BMP_pressure;BME280_temperature;BME280_humidity;BME280_pressure;Samples;Min_cycle;Max_cycle;Signal;HPM_P1;HPM_P2
2021/05/30 00:01:16;;;;;;;7.70;6.88;;;;;;;;;;5035196;28;20225;-80
2021/05/30 00:03:44;;;;;;;8.15;6.80;;;;;;;;;;5034870;28;20222;-80
2021/05/30 00:06:11;;;;;;;7.07;6.38;;;;;;;;;;5034446;28;20206;-80
2021/05/30 00:08:38;;;;;;;7.60;6.93;;;;;;;;;;5034876;28;20226;-80
2021/05/30 00:11:05;;;;;;;8.45;6.50;;;;;;;;;;5034272;28;20229;-80
2021/05/30 00:13:32;;;;;;;8.85;7.95;;;;;;;;;;5034525;28;20668;-80
2021/05/30 00:15:58;;;;;;;7.20;6.47;;;;;;;;;;5034666;28;20677;-80
2021/05/30 00:18:25;;;;;;;7.53;6.80;;;;;;;;;;5034925;28;20222;-81
2021/05/30 00:20:53;;;;;;;8.32;6.78;;;;;;;;;;5034882;28;20209;-80
2021/05/30 00:23:20;;;;;;;8.07;6.38;;;;;;;;;;5034833;28;20688;-80
2021/05/30 00:25:47;;;;;;;8.48;7.28;;;;;;;;;;5034097;28;20206;-80
2021/05/30 00:28:14;;;;;;;8.65;7.15;;;;;;;;;;5034575;28;20283;-80
2021/05/30 00:30:41;;;;;;;7.07;6.38;;;;;;;;;;5034144;28;20664;-81
2021/05/30 00:33:07;;;;;;;7.95;6.10;;;;;;;;;;5034554;28;20202;-80
2021/05/30 00:35:35;;;;;;;8.75;7.22;;;;;;;;;;5034375;28;20223;-80
2021/05/30 00:38:02;;;;;;;8.38;6.20;;;;;;;;;;5034253;28;20230;-80
2021/05/30 00:40:29;;;;;;;7.65;6.63;;;;;;;;;;5034571;28;20210;-80
2021/05/30 00:42:56;;;;;;;7.68;6.88;;;;;;;;;;5034782;28;20575;-80
2021/05/30 00:45:23;;;;;;;8.52;6.57;;;;;;;;;;5034383;28;20623;-80
2021/05/30 00:47:51;;;;;;;6.95;6.00;;;;;;;;;;5034353;28;20222;-81
2021/05/30 00:50:18;;;;;;;7.57;6.18;;;;;;;;;;5034614;28;20198;-81
2021/05/30 00:52:45;;;;;;;6.93;6.30;;;;;;;;;;5032170;28;20604;-81
2021/05/30 00:55:14;;;;;;;9.32;7.15;;;;;;;;;;5033606;28;20280;-80
2021/05/30 00:57:41;;;;;;;6.80;6.20;;;;;;;;;;5034043;28;20198;-80
2021/05/30 01:00:10;;;;;;;6.43;5.75;;;;;;;;;;5034278;28;20668;-80
2021/05/30 01:02:37;;;;;;;7.10;6.05;;;;;;;;;;5034497;28;20209;-81
2021/05/30 01:05:07;;;;;;;6.63;5.90;;;;;;;;;;5034119;28;20234;-81
2021/05/30 01:07:40;;;;;;;6.70;5.53;;;;;;;;;;5033719;28;20738;-80
2021/05/30 01:10:26;;;;;;;6.10;5.50;;;;;;;;;;5034226;28;20202;-80
2021/05/30 01:12:53;;;;;;;7.70;5.82;;;;;;;;;;5034176;28;20214;-80
2021/05/30 01:15:21;;;;;;;7.00;5.88;;;;;;;;;;5033087;28;20222;-80
2021/05/30 01:17:48;;;;;;;6.75;5.53;;;;;;;;;;5032629;28;20271;-80
2021/05/30 01:20:17;;;;;;;5.93;5.28;;;;;;;;;;5033792;28;20633;-80
2021/05/30 01:22:46;;;;;;;6.60;5.72;;;;;;;;;;5034407;28;20413;-80
2021/05/30 01:25:17;;;;;;;6.25;4.97;;;;;;;;;;5034180;28;20226;-81
2021/05/30 01:27:45;;;;;;;7.07;5.60;;;;;;;;;;5033508;28;20691;-80
2021/05/30 01:30:13;;;;;;;6.70;5.70;;;;;;;;;;5033904;28;20202;-81
2021/05/30 01:32:40;;;;;;;5.80;4.80;;;;;;;;;;5033574;28;20209;-80
2021/05/30 01:35:09;;;;;;;6.97;5.63;;;;;;;;;;5033303;28;20777;-81
2021/05/30 01:37:36;;;;;;;6.88;5.85;;;;;;;;;;5032902;28;20248;-80
2021/05/30 01:40:05;;;;;;;6.00;5.40;;;;;;;;;;5033896;28;20202;-80
2021/05/30 01:42:33;;;;;;;7.03;5.03;;;;;;;;;;5033408;28;20224;-80
2021/05/30 01:45:00;;;;;;;5.50;4.95;;;;;;;;;;5032949;28;20285;-80
2021/05/30 01:47:27;;;;;;;5.75;5.00;;;;;;;;;;5033209;28;20209;-80
2021/05/30 01:49:54;;;;;;;8.23;5.97;;;;;;;;;;5032935;28;20590;-80
2021/05/30 01:52:21;;;;;;;5.68;5.07;;;;;;;;;;5033342;28;20699;-80
2021/05/30 01:54:50;;;;;;;7.28;5.28;;;;;;;;;;5033135;28;20233;-80
2021/05/30 01:57:17;;;;;;;5.85;5.10;;;;;;;;;;5033051;28;20242;-80
2021/05/30 01:59:45;;;;;;;6.25;5.22;;;;;;;;;;5033342;28;20202;-81
2021/05/30 02:02:12;;;;;;;6.15;5.05;;;;;;;;;;5033330;28;20194;-80
2021/05/30 02:04:42;;;;;;;6.35;4.93;;;;;;;;;;5033352;28;20229;-80
2021/05/30 02:07:09;;;;;;;6.95;5.43;;;;;;;;;;5033206;28;20194;-80
2021/05/30 02:09:38;;;;;;;7.63;6.32;;;;;;;;;;5032675;28;20755;-80
2021/05/30 02:12:07;;;;;;;5.10;4.57;;;;;;;;;;5032518;28;20642;-80
2021/05/30 02:14:35;;;;;;;7.90;5.60;;;;;;;;;;5032783;28;20612;-80
2021/05/30 02:17:04;;;;;;;6.13;5.07;;;;;;;;;;5033386;28;20225;-80
2021/05/30 02:19:31;;;;;;;5.65;5.15;;;;;;;;;;5032707;28;20583;-80
2021/05/30 02:21:59;;;;;;;6.78;5.07;;;;;;;;;;5031826;28;20268;-80
2021/05/30 02:24:26;;;;;;;7.00;5.30;;;;;;;;;;5032070;28;20277;-80
2021/05/30 02:26:53;;;;;;;5.90;5.30;;;;;;;;;;5032855;28;20206;-80
2021/05/30 02:29:32;;;;;;;5.75;4.70;;;;;;;;;;5032341;28;20275;-80
2021/05/30 02:31:59;;;;;;;6.35;4.53;;;;;;;;;;5033166;28;20268;-81
2021/05/30 02:34:27;;;;;;;6.68;5.63;;;;;;;;;;5032731;28;20729;-81
2021/05/30 02:36:54;;;;;;;6.18;5.57;;;;;;;;;;5032284;28;20285;-80
2021/05/30 02:39:21;;;;;;;6.13;5.53;;;;;;;;;;5031305;28;20286;-80
2021/05/30 02:41:48;;;;;;;7.38;5.13;;;;;;;;;;5031128;28;20634;-80
2021/05/30 02:44:15;;;;;;;5.43;4.93;;;;;;;;;;5032541;28;20226;-80
2021/05/30 02:46:42;;;;;;;6.03;5.28;;;;;;;;;;5032691;28;20233;-80
2021/05/30 02:49:09;;;;;;;5.45;4.88;;;;;;;;;;5032637;28;20226;-80
2021/05/30 02:51:37;;;;;;;5.80;4.85;;;;;;;;;;5032275;28;20198;-80
2021/05/30 02:54:04;;;;;;;5.65;4.95;;;;;;;;;;5032630;28;20276;-80
2021/05/30 02:56:31;;;;;;;6.82;5.00;;;;;;;;;;5033009;28;20244;-80
2021/05/30 02:58:58;;;;;;;5.28;4.68;;;;;;;;;;5032877;28;20221;-80
2021/05/30 03:01:25;;;;;;;4.90;4.40;;;;;;;;;;5033249;28;20695;-80
2021/05/30 03:03:52;;;;;;;4.38;4.00;;;;;;;;;;5032792;28;20233;-81
2021/05/30 03:06:23;;;;;;;4.88;4.47;;;;;;;;;;5032973;28;20212;-80
2021/05/30 03:08:51;;;;;;;5.95;4.63;;;;;;;;;;5033572;28;20229;-80
2021/05/30 03:11:18;;;;;;;4.85;4.32;;;;;;;;;;5033630;28;20222;-80
2021/05/30 03:13:46;;;;;;;5.60;4.82;;;;;;;;;;5033254;28;20218;-81
2021/05/30 03:16:13;;;;;;;4.07;3.67;;;;;;;;;;5033171;28;20208;-81
2021/05/30 03:18:39;;;;;;;7.47;4.22;;;;;;;;;;5032740;28;20256;-80
2021/05/30 03:21:06;;;;;;;5.00;4.50;;;;;;;;;;5033668;28;20718;-80
2021/05/30 03:23:33;;;;;;;4.20;3.80;;;;;;;;;;5033142;28;20302;-80
2021/05/30 03:26:01;;;;;;;7.53;4.20;;;;;;;;;;5033238;28;20711;-82
2021/05/30 03:28:28;;;;;;;3.83;3.50;;;;;;;;;;5033169;28;20206;-80
2021/05/30 03:30:55;;;;;;;5.45;4.60;;;;;;;;;;5033372;28;20257;-80
2021/05/30 03:33:22;;;;;;;4.63;4.20;;;;;;;;;;5033413;28;20182;-81
2021/05/30 03:35:49;;;;;;;5.45;3.53;;;;;;;;;;5033226;28;20615;-80
2021/05/30 03:38:18;;;;;;;4.85;4.35;;;;;;;;;;4994150;28;20207;-80
2021/05/30 03:40:47;;;;;;;4.78;4.00;;;;;;;;;;4994531;28;20301;-80
2021/05/30 03:43:15;;;;;;;4.57;4.18;;;;;;;;;;4994697;28;20737;-80
2021/05/30 03:45:43;;;;;;;4.78;3.45;;;;;;;;;;4993722;28;20346;-80
2021/05/30 03:48:10;;;;;;;3.85;3.55;;;;;;;;;;4994406;28;20286;-80
2021/05/30 03:50:37;;;;;;;5.55;4.28;;;;;;;;;;4994224;28;20227;-82
2021/05/30 03:53:04;;;;;;;4.78;4.07;;;;;;;;;;4994121;28;20222;-80
2021/05/30 03:55:31;;;;;;;4.68;4.25;;;;;;;;;;4993993;28;20224;-80
2021/05/30 03:57:58;;;;;;;5.25;4.03;;;;;;;;;;4993681;28;20208;-80
2021/05/30 04:00:26;;;;;;;3.78;3.47;;;;;;;;;;4992927;28;20590;-80
2021/05/30 04:02:53;;;;;;;6.15;3.67;;;;;;;;;;4994149;28;20207;-80
2021/05/30 04:05:20;;;;;;;4.53;4.13;;;;;;;;;;4996333;28;20228;-80
2021/05/30 04:07:47;;;;;;;4.25;3.85;;;;;;;;;;4996874;28;20743;-80
2021/05/30 04:10:14;;;;;;;4.18;3.47;;;;;;;;;;4997610;28;20702;-80
2021/05/30 04:12:42;;;;;;;7.82;4.03;;;;;;;;;;4997646;28;20207;-80
2021/05/30 04:15:12;;;;;;;4.97;4.47;;;;;;;;;;4997668;28;20223;-80
2021/05/30 04:17:40;;;;;;;5.10;3.67;;;;;;;;;;4997327;28;20199;-80
2021/05/30 04:20:09;;;;;;;4.00;3.70;;;;;;;;;;4997406;28;20203;-80
2021/05/30 04:22:36;;;;;;;4.38;3.92;;;;;;;;;;4996860;28;20227;-80
2021/05/30 04:25:03;;;;;;;7.78;4.93;;;;;;;;;;4997067;28;20228;-81
2021/05/30 04:27:30;;;;;;;4.07;3.70;;;;;;;;;;4996729;28;20317;-80
2021/05/30 04:29:57;;;;;;;5.03;4.53;;;;;;;;;;4996998;28;20235;-80
2021/05/30 04:32:24;;;;;;;4.75;4.07;;;;;;;;;;4996950;28;20584;-81
2021/05/30 04:34:52;;;;;;;4.20;3.80;;;;;;;;;;4996876;28;20616;-81
2021/05/30 04:37:18;;;;;;;4.20;3.80;;;;;;;;;;5021387;28;20241;-81
2021/05/30 04:39:45;;;;;;;4.18;3.85;;;;;;;;;;5036069;28;20194;-81
2021/05/30 04:42:12;;;;;;;4.45;4.05;;;;;;;;;;5036657;28;20258;-81
2021/05/30 04:44:39;;;;;;;5.53;4.13;;;;;;;;;;5035938;28;20604;-81
2021/05/30 04:47:06;;;;;;;5.88;5.10;;;;;;;;;;5036278;28;20206;-81
2021/05/30 04:49:33;;;;;;;6.28;5.28;;;;;;;;;;5036364;28;20261;-81
2021/05/30 04:52:01;;;;;;;5.07;4.60;;;;;;;;;;5035487;28;20572;-81
2021/05/30 04:54:28;;;;;;;6.60;5.03;;;;;;;;;;5036065;28;20241;-81
2021/05/30 04:56:55;;;;;;;4.93;4.47;;;;;;;;;;5035317;28;20206;-81
2021/05/30 04:59:21;;;;;;;5.78;5.10;;;;;;;;;;5035500;28;20209;-81
2021/05/30 05:01:48;;;;;;;9.10;5.95;;;;;;;;;;5035966;28;20237;-81
2021/05/30 05:04:15;;;;;;;8.00;5.50;;;;;;;;;;5036033;28;20225;-81
2021/05/30 05:06:42;;;;;;;9.02;5.75;;;;;;;;;;5035814;28;20249;-81
2021/05/30 05:09:10;;;;;;;6.55;5.43;;;;;;;;;;5035379;28;20660;-81
2021/05/30 05:11:37;;;;;;;6.50;5.75;;;;;;;;;;5035912;28;20260;-81
2021/05/30 05:14:04;;;;;;;6.57;5.93;;;;;;;;;;5035829;28;20267;-81
2021/05/30 05:16:31;;;;;;;8.23;6.82;;;;;;;;;;5035967;28;20205;-81
2021/05/30 05:18:59;;;;;;;8.35;7.53;;;;;;;;;;5035321;28;20205;-81
2021/05/30 05:21:26;;;;;;;8.25;7.20;;;;;;;;;;5035033;28;20198;-81
2021/05/30 05:23:54;;;;;;;9.40;6.57;;;;;;;;;;5035378;28;20214;-81
2021/05/30 05:26:22;;;;;;;7.45;6.70;;;;;;;;;;5035161;28;20244;-81
2021/05/30 05:28:49;;;;;;;6.78;6.15;;;;;;;;;;5035521;28;20551;-81
2021/05/30 05:31:16;;;;;;;6.30;5.70;;;;;;;;;;5030993;28;20227;-82
2021/05/30 05:33:43;;;;;;;6.22;5.63;;;;;;;;;;5029098;28;20635;-81
2021/05/30 05:36:10;;;;;;;6.72;5.88;;;;;;;;;;5034950;28;20713;-82
2021/05/30 05:38:37;;;;;;;7.03;6.05;;;;;;;;;;5035034;28;20640;-81
2021/05/30 05:41:04;;;;;;;6.43;5.78;;;;;;;;;;5035152;28;20681;-81
2021/05/30 05:43:32;;;;;;;6.63;5.93;;;;;;;;;;5035094;28;20225;-82
2021/05/30 05:45:59;;;;;;;7.38;6.60;;;;;;;;;;5035324;28;20195;-82
2021/05/30 05:48:26;;;;;;;9.35;6.60;;;;;;;;;;5034815;28;20206;-82
2021/05/30 05:50:53;;;;;;;8.77;7.38;;;;;;;;;;5034592;28;20259;-82
2021/05/30 05:53:22;;;;;;;6.40;5.75;;;;;;;;;;5034280;28;20233;-83
2021/05/30 05:55:49;;;;;;;7.45;5.93;;;;;;;;;;5035008;28;20673;-83
2021/05/30 05:58:16;;;;;;;7.18;5.95;;;;;;;;;;5033969;28;20206;-83
2021/05/30 06:00:43;;;;;;;6.28;5.68;;;;;;;;;;5033519;28;20194;-83
2021/05/30 06:03:10;;;;;;;7.25;6.55;;;;;;;;;;5033004;28;20255;-83
2021/05/30 06:05:37;;;;;;;7.47;6.03;;;;;;;;;;5034325;28;20222;-83
2021/05/30 06:08:05;;;;;;;7.00;5.82;;;;;;;;;;5034462;28;20202;-83
2021/05/30 06:10:32;;;;;;;6.72;5.95;;;;;;;;;;5033800;28;20596;-84
2021/05/30 06:13:01;;;;;;;8.35;5.68;;;;;;;;;;5033979;28;20206;-84
2021/05/30 06:15:29;;;;;;;7.03;5.95;;;;;;;;;;5033975;28;20252;-83
2021/05/30 06:17:59;;;;;;;6.47;5.88;;;;;;;;;;5034100;28;20186;-84
2021/05/30 06:20:26;;;;;;;6.78;6.05;;;;;;;;;;5033540;28;20195;-83
2021/05/30 06:22:54;;;;;;;7.10;6.50;;;;;;;;;;5034270;28;20208;-83
2021/05/30 06:25:21;;;;;;;8.68;6.20;;;;;;;;;;5034149;28;20226;-83
2021/05/30 06:27:48;;;;;;;8.60;6.63;;;;;;;;;;5033662;28;20229;-83
2021/05/30 06:30:18;;;;;;;6.25;5.57;;;;;;;;;;5033801;28;20229;-83
2021/05/30 06:32:45;;;;;;;6.47;5.88;;;;;;;;;;5035117;28;20225;-83
2021/05/30 06:35:12;;;;;;;6.07;5.43;;;;;;;;;;5034072;28;20279;-83
2021/05/30 06:37:39;;;;;;;7.35;5.63;;;;;;;;;;5034184;28;20237;-84
2021/05/30 06:40:08;;;;;;;6.40;5.80;;;;;;;;;;5034455;28;20206;-83
2021/05/30 06:42:35;;;;;;;8.10;6.97;;;;;;;;;;5034454;28;20691;-83
2021/05/30 06:45:02;;;;;;;8.90;6.93;;;;;;;;;;5033295;28;20295;-83
2021/05/30 06:47:29;;;;;;;6.20;5.63;;;;;;;;;;5033451;28;20213;-84
2021/05/30 06:49:55;;;;;;;8.15;5.85;;;;;;;;;;5033137;28;20226;-84
2021/05/30 06:52:23;;;;;;;7.75;6.30;;;;;;;;;;5043897;28;20625;-84
2021/05/30 06:54:50;;;;;;;8.40;6.70;;;;;;;;;;5053933;28;20260;-84
2021/05/30 06:57:17;;;;;;;8.20;6.70;;;;;;;;;;5044904;28;20202;-83
2021/05/30 06:59:44;;;;;;;7.65;6.85;;;;;;;;;;5034043;28;20206;-84
2021/05/30 07:02:11;;;;;;;9.35;6.63;;;;;;;;;;5033914;28;20352;-84
2021/05/30 07:04:38;;;;;;;9.02;7.18;;;;;;;;;;5033776;28;20297;-83
2021/05/30 07:07:05;;;;;;;7.30;6.63;;;;;;;;;;5033996;28;20194;-84
2021/05/30 07:09:33;;;;;;;7.38;6.32;;;;;;;;;;5033817;28;20672;-84
2021/05/30 07:12:00;;;;;;;6.63;5.75;;;;;;;;;;5032755;28;20224;-84
2021/05/30 07:14:27;;;;;;;7.35;6.65;;;;;;;;;;5034019;28;20226;-84
2021/05/30 07:16:56;;;;;;;10.68;7.28;;;;;;;;;;5033677;28;20233;-84
2021/05/30 07:19:23;;;;;;;7.13;6.50;;;;;;;;;;5033902;28;20195;-83
2021/05/30 07:21:50;;;;;;;6.28;5.63;;;;;;;;;;5033248;28;20205;-83
2021/05/30 07:24:17;;;;;;;7.57;6.50;;;;;;;;;;5033010;28;20226;-84
2021/05/30 07:26:45;;;;;;;7.05;6.13;;;;;;;;;;5033989;28;20636;-84
2021/05/30 07:29:14;;;;;;;7.68;4.93;;;;;;;;;;5033680;28;20202;-84
2021/05/30 07:31:41;;;;;;;6.45;5.85;;;;;;;;;;5037551;28;20206;-84
2021/05/30 07:34:08;;;;;;;7.28;6.03;;;;;;;;;;5052489;28;20696;-84
2021/05/30 07:36:35;;;;;;;7.13;5.65;;;;;;;;;;5052135;28;20711;-84
2021/05/30 07:39:02;;;;;;;6.57;5.90;;;;;;;;;;5053800;28;20232;-84
2021/05/30 07:41:29;;;;;;;7.18;6.47;;;;;;;;;;5052666;28;20194;-84
2021/05/30 07:44:00;;;;;;;7.30;6.50;;;;;;;;;;5035862;28;20268;-84
2021/05/30 07:46:27;;;;;;;6.50;5.95;;;;;;;;;;5035560;28;20206;-84
2021/05/30 07:48:56;;;;;;;8.05;5.93;;;;;;;;;;5035653;28;20198;-84
2021/05/30 07:51:26;;;;;;;9.40;6.88;;;;;;;;;;5035548;28;20272;-83
2021/05/30 07:53:53;;;;;;;5.68;5.18;;;;;;;;;;5036455;28;20236;-83
2021/05/30 07:56:23;;;;;;;6.05;5.43;;;;;;;;;;5037153;28;20677;-83
2021/05/30 07:58:51;;;;;;;5.35;4.85;;;;;;;;;;5037348;28;20252;-83
2021/05/30 08:01:19;;;;;;;5.10;4.68;;;;;;;;;;5036924;28;20202;-84
2021/05/30 08:03:46;;;;;;;5.00;4.50;;;;;;;;;;5037491;28;20222;-84
2021/05/30 08:06:15;;;;;;;4.53;4.13;;;;;;;;;;5037055;28;20203;-84
2021/05/30 08:08:45;;;;;;;4.88;3.85;;;;;;;;;;5037464;28;20206;-85
2021/05/30 08:11:11;;;;;;;5.70;5.20;;;;;;;;;;5036652;28;20230;-84
2021/05/30 08:13:38;;;;;;;5.18;4.78;;;;;;;;;;5037071;28;20233;-83
2021/05/30 08:16:05;;;;;;;6.25;4.90;;;;;;;;;;5037935;28;20248;-83
2021/05/30 08:18:33;;;;;;;6.78;4.55;;;;;;;;;;5036689;28;20661;-83
2021/05/30 08:21:00;;;;;;;4.82;3.97;;;;;;;;;;5036702;28;20691;-83
2021/05/30 08:23:27;;;;;;;4.80;4.40;;;;;;;;;;5036216;28;20222;-83
2021/05/30 08:25:54;;;;;;;4.57;4.18;;;;;;;;;;5036726;28;20202;-83
2021/05/30 08:28:23;;;;;;;5.20;4.70;;;;;;;;;;5035876;28;20263;-83
2021/05/30 08:30:50;;;;;;;4.53;4.13;;;;;;;;;;5036157;28;20234;-83
2021/05/30 08:33:17;;;;;;;4.53;4.13;;;;;;;;;;5054013;28;20669;-85
2021/05/30 08:35:44;;;;;;;4.18;3.78;;;;;;;;;;5056086;28;20621;-84
2021/05/30 08:38:11;;;;;;;5.88;4.65;;;;;;;;;;5055914;28;20258;-84
2021/05/30 08:40:38;;;;;;;4.80;4.05;;;;;;;;;;5056247;28;20209;-84
2021/05/30 08:43:05;;;;;;;4.60;4.20;;;;;;;;;;5039606;28;20218;-84
2021/05/30 08:45:32;;;;;;;4.28;3.85;;;;;;;;;;5035623;28;20218;-84
2021/05/30 08:47:59;;;;;;;4.53;4.13;;;;;;;;;;5035857;28;20210;-85
2021/05/30 08:50:26;;;;;;;4.18;3.78;;;;;;;;;;5035413;28;20202;-84
2021/05/30 08:52:54;;;;;;;4.07;3.67;;;;;;;;;;5035886;28;20212;-84
2021/05/30 08:55:21;;;;;;;4.47;4.07;;;;;;;;;;5035988;28;20268;-85
2021/05/30 08:57:48;;;;;;;4.45;4.05;;;;;;;;;;5035361;28;20696;-84
2021/05/30 09:00:24;;;;;;;4.55;4.15;;;;;;;;;;5035273;28;20665;-85
2021/05/30 09:03:13;;;;;;;4.15;3.55;;;;;;;;;;5035607;28;20236;-85
2021/05/30 09:05:41;;;;;;;3.85;3.05;;;;;;;;;;5035437;28;20253;-85
2021/05/30 09:08:09;;;;;;;3.53;3.20;;;;;;;;;;5035431;28;20231;-85
2021/05/30 09:10:36;;;;;;;3.90;3.20;;;;;;;;;;5034153;28;20210;-84
2021/05/30 09:13:08;;;;;;;4.45;4.05;;;;;;;;;;5050520;28;20193;-86
2021/05/30 09:15:53;;;;;;;3.75;3.45;;;;;;;;;;5054164;28;20222;-85
2021/05/30 09:18:22;;;;;;;3.58;3.28;;;;;;;;;;5054664;28;20201;-85
2021/05/30 09:20:54;;;;;;;5.32;3.95;;;;;;;;;;5054094;28;20197;-86
2021/05/30 09:23:34;;;;;;;3.63;3.33;;;;;;;;;;5034478;28;20217;-86
2021/05/30 09:26:11;;;;;;;3.95;3.55;;;;;;;;;;5034333;28;20236;-86
2021/05/30 09:28:39;;;;;;;4.18;3.78;;;;;;;;;;5035640;28;20251;-86
2021/05/30 09:31:07;;;;;;;4.07;3.65;;;;;;;;;;5035647;28;20264;-85
2021/05/30 09:33:35;;;;;;;5.25;3.95;;;;;;;;;;5034567;28;20214;-85
2021/05/30 09:36:03;;;;;;;5.25;3.28;;;;;;;;;;5034093;28;20201;-85
2021/05/30 09:38:39;;;;;;;3.75;3.45;;;;;;;;;;5034897;28;20630;-86
2021/05/30 09:41:09;;;;;;;3.92;3.30;;;;;;;;;;5034250;28;20205;-86
2021/05/30 09:43:38;;;;;;;3.60;3.30;;;;;;;;;;5033697;28;20344;-86
2021/05/30 09:46:11;;;;;;;4.25;3.85;;;;;;;;;;5033740;28;20202;-85
2021/05/30 09:48:56;;;;;;;3.42;3.00;;;;;;;;;;5034138;28;20375;-86
2021/05/30 09:51:30;;;;;;;3.35;3.03;;;;;;;;;;5035676;28;20222;-85
2021/05/30 09:54:01;;;;;;;3.28;3.08;;;;;;;;;;5053701;28;20774;-85
2021/05/30 09:56:31;;;;;;;3.33;3.03;;;;;;;;;;5053457;28;20206;-84
2021/05/30 09:58:59;;;;;;;3.15;2.85;;;;;;;;;;5054866;28;20201;-85
2021/05/30 10:01:27;;;;;;;3.63;3.33;;;;;;;;;;5050926;28;20283;-85
2021/05/30 10:03:55;;;;;;;4.07;3.38;;;;;;;;;;5033033;28;20268;-84
2021/05/30 10:06:22;;;;;;;3.15;2.85;;;;;;;;;;5033206;28;20206;-85
2021/05/30 10:08:57;;;;;;;3.30;3.10;;;;;;;;;;5032952;28;20214;-85
2021/05/30 10:11:25;;;;;;;3.47;3.10;;;;;;;;;;5034927;28;20221;-85
2021/05/30 10:13:52;;;;;;;3.10;2.75;;;;;;;;;;5052671;28;20716;-86
2021/05/30 10:16:19;;;;;;;2.97;2.70;;;;;;;;;;5052227;28;20213;-85
2021/05/30 10:18:50;;;;;;;2.60;2.40;;;;;;;;;;5052476;28;20204;-86
2021/05/30 10:21:19;;;;;;;3.90;3.60;;;;;;;;;;5050922;28;20284;-84
2021/05/30 10:23:51;;;;;;;2.80;2.60;;;;;;;;;;5033030;28;20229;-84
2021/05/30 10:26:19;;;;;;;3.28;2.97;;;;;;;;;;5033661;28;20224;-84
2021/05/30 10:28:52;;;;;;;3.30;3.00;;;;;;;;;;5033082;28;20581;-84
2021/05/30 10:31:25;;;;;;;3.60;3.30;;;;;;;;;;5034283;28;20222;-85
2021/05/30 10:34:19;;;;;;;3.00;2.78;;;;;;;;;;5052168;28;20719;-85
2021/05/30 10:37:24;;;;;;;2.75;2.42;;;;;;;;;;5052151;28;20229;-85
2021/05/30 10:39:52;;;;;;;3.45;3.15;;;;;;;;;;5052175;28;20284;-85
2021/05/30 10:42:22;;;;;;;3.00;2.80;;;;;;;;;;5042121;28;20652;-86
2021/05/30 10:45:03;;;;;;;2.70;2.50;;;;;;;;;;5037036;28;20225;-86
2021/05/30 10:48:19;;;;;;;3.03;2.80;;;;;;;;;;5032102;28;20204;-85
2021/05/30 10:50:54;;;;;;;2.63;2.42;;;;;;;;;;4970843;28;20291;-85
2021/05/30 10:53:41;;;;;;;3.13;2.85;;;;;;;;;;5038899;28;20227;-85
2021/05/30 10:56:30;;;;;;;2.42;2.22;;;;;;;;;;5051832;28;20263;-85
2021/05/30 10:59:29;;;;;;;2.60;2.40;;;;;;;;;;5052350;28;20208;-85
2021/05/30 11:02:03;;;;;;;2.60;2.40;;;;;;;;;;5031137;28;20190;-85
2021/05/30 11:04:40;;;;;;;3.28;2.97;;;;;;;;;;5034838;28;20237;-85
2021/05/30 11:07:39;;;;;;;3.28;2.60;;;;;;;;;;5032323;28;20574;-85
2021/05/30 11:10:19;;;;;;;2.45;2.10;;;;;;;;;;5033157;28;20673;-86
2021/05/30 11:12:57;;;;;;;2.83;2.63;;;;;;;;;;5046108;28;20225;-84
2021/05/30 11:15:37;;;;;;;2.47;2.28;;;;;;;;;;5058669;28;20229;-85
2021/05/30 11:18:08;;;;;;;2.58;2.38;;;;;;;;;;5056766;28;20205;-85
2021/05/30 11:20:47;;;;;;;5.70;2.72;;;;;;;;;;5056225;28;20216;-85
2021/05/30 11:23:20;;;;;;;2.42;2.22;;;;;;;;;;5039324;28;20790;-85
2021/05/30 11:25:50;;;;;;;3.00;2.10;;;;;;;;;;5037885;28;20583;-85
2021/05/30 11:28:19;;;;;;;4.60;3.00;;;;;;;;;;5036260;28;20217;-85
2021/05/30 11:30:51;;;;;;;2.30;2.10;;;;;;;;;;5036070;28;20206;-85
2021/05/30 11:33:39;;;;;;;2.97;2.58;;;;;;;;;;5035683;28;20309;-84
2021/05/30 11:36:18;;;;;;;3.63;2.83;;;;;;;;;;5035799;28;20213;-85
2021/05/30 11:38:52;;;;;;;3.00;2.40;;;;;;;;;;5035637;28;20241;-84
2021/05/30 11:41:23;;;;;;;2.30;2.20;;;;;;;;;;5036861;28;20637;-85
2021/05/30 11:44:03;;;;;;;3.22;2.35;;;;;;;;;;5055586;28;20226;-85
2021/05/30 11:46:36;;;;;;;2.60;2.40;;;;;;;;;;5055202;28;20717;-85
2021/05/30 11:49:10;;;;;;;3.60;2.22;;;;;;;;;;5055059;28;20201;-85
2021/05/30 11:51:52;;;;;;;2.75;2.50;;;;;;;;;;5050971;28;20283;-85
2021/05/30 11:54:21;;;;;;;2.65;2.45;;;;;;;;;;5035306;28;20225;-85
2021/05/30 11:56:50;;;;;;;2.35;1.98;;;;;;;;;;5035657;28;20195;-85
2021/05/30 11:59:26;;;;;;;2.30;2.08;;;;;;;;;;5035802;28;20598;-85
2021/05/30 12:01:53;;;;;;;2.70;2.30;;;;;;;;;;5041335;28;20193;-84
2021/05/30 12:04:37;;;;;;;2.50;2.30;;;;;;;;;;5055218;28;20278;-85
2021/05/30 12:07:08;;;;;;;2.55;2.35;;;;;;;;;;5055228;28;20205;-85
2021/05/30 12:09:51;;;;;;;2.83;2.33;;;;;;;;;;5055424;28;20294;-84
2021/05/30 12:12:33;;;;;;;3.00;2.00;;;;;;;;;;5045564;28;20305;-85
2021/05/30 12:15:07;;;;;;;3.58;2.00;;;;;;;;;;5035098;28;20696;-84
2021/05/30 12:17:34;;;;;;;2.13;2.03;;;;;;;;;;5036037;28;20653;-84
2021/05/30 12:20:03;;;;;;;2.70;2.15;;;;;;;;;;5035912;28;20240;-86
2021/05/30 12:22:32;;;;;;;3.42;2.72;;;;;;;;;;5046293;28;20564;-85
2021/05/30 12:25:00;;;;;;;2.78;2.10;;;;;;;;;;5054030;28;20229;-85
2021/05/30 12:27:27;;;;;;;3.78;3.47;;;;;;;;;;5055697;28;20210;-84
2021/05/30 12:29:56;;;;;;;2.60;2.40;;;;;;;;;;5054103;28;20672;-85
2021/05/30 12:32:24;;;;;;;2.17;1.98;;;;;;;;;;5044442;28;20312;-85
2021/05/30 12:34:51;;;;;;;3.00;2.20;;;;;;;;;;5034533;28;20606;-85
2021/05/30 12:37:37;;;;;;;2.70;2.50;;;;;;;;;;5034637;28;20234;-85
2021/05/30 12:40:05;;;;;;;2.00;1.90;;;;;;;;;;5034502;28;20202;-85
2021/05/30 12:42:32;;;;;;;2.80;2.30;;;;;;;;;;5046046;28;20186;-85
2021/05/30 12:45:09;;;;;;;5.13;2.60;;;;;;;;;;5054172;28;20243;-85
2021/05/30 12:47:42;;;;;;;3.38;2.85;;;;;;;;;;5037631;28;20209;-85
2021/05/30 12:50:11;;;;;;;3.00;2.80;;;;;;;;;;5054158;28;20209;-85
2021/05/30 12:52:50;;;;;;;3.42;2.63;;;;;;;;;;5041631;28;20575;-84
2021/05/30 12:55:18;;;;;;;2.33;2.10;;;;;;;;;;5033613;28;20272;-85
2021/05/30 12:57:48;;;;;;;2.40;2.20;;;;;;;;;;5033990;28;20253;-86
2021/05/30 13:00:28;;;;;;;3.35;2.15;;;;;;;;;;5034130;28;20302;-86
2021/05/30 13:03:00;;;;;;;2.40;2.20;;;;;;;;;;5048204;28;20253;-85
2021/05/30 13:05:37;;;;;;;9.02;8.20;;;;;;;;;;5053598;28;20229;-85
2021/05/30 13:08:19;;;;;;;2.45;2.25;;;;;;;;;;5053681;28;20206;-85
2021/05/30 13:10:55;;;;;;;4.20;3.80;;;;;;;;;;5053482;28;20698;-85
2021/05/30 13:13:30;;;;;;;2.40;2.20;;;;;;;;;;5035249;28;20233;-84
2021/05/30 13:15:58;;;;;;;3.00;2.38;;;;;;;;;;5033646;28;20210;-86
2021/05/30 13:18:25;;;;;;;2.47;2.30;;;;;;;;;;5033519;28;20202;-85
2021/05/30 13:20:53;;;;;;;2.53;2.00;;;;;;;;;;5033358;28;20209;-85
2021/05/30 13:23:29;;;;;;;2.28;2.10;;;;;;;;;;5033026;28;20697;-84
2021/05/30 13:26:05;;;;;;;3.03;2.20;;;;;;;;;;5033493;28;20210;-86
2021/05/30 13:28:39;;;;;;;3.10;2.30;;;;;;;;;;5033490;28;20269;-85
2021/05/30 13:31:09;;;;;;;2.30;2.10;;;;;;;;;;5033482;28;20284;-84
2021/05/30 13:33:38;;;;;;;1.85;1.75;;;;;;;;;;5013932;28;20233;-85
2021/05/30 13:36:06;;;;;;;3.10;2.00;;;;;;;;;;5013462;28;20281;-85
2021/05/30 13:38:35;;;;;;;4.57;2.50;;;;;;;;;;5013822;28;20289;-84
2021/05/30 13:41:13;;;;;;;3.20;2.05;;;;;;;;;;5013612;28;20290;-85
2021/05/30 13:43:40;;;;;;;2.20;1.88;;;;;;;;;;5013378;28;20735;-85
2021/05/30 13:46:07;;;;;;;3.00;2.40;;;;;;;;;;5012976;28;20553;-85
2021/05/30 13:48:34;;;;;;;2.45;2.25;;;;;;;;;;5013724;28;20202;-84
2021/05/30 13:51:01;;;;;;;2.30;2.17;;;;;;;;;;5013571;28;20256;-85
2021/05/30 13:53:29;;;;;;;3.15;2.15;;;;;;;;;;5013511;28;20226;-85
2021/05/30 13:55:57;;;;;;;2.60;2.40;;;;;;;;;;5013678;28;20195;-85
2021/05/30 13:58:24;;;;;;;2.78;2.58;;;;;;;;;;5013670;28;20209;-84
2021/05/30 14:00:51;;;;;;;3.88;3.03;;;;;;;;;;5013483;28;20190;-84
2021/05/30 14:03:18;;;;;;;3.60;3.10;;;;;;;;;;5013734;28;20207;-85
2021/05/30 14:05:46;;;;;;;4.80;2.50;;;;;;;;;;5012858;28;20209;-84
2021/05/30 14:08:13;;;;;;;2.40;2.20;;;;;;;;;;5013219;28;20826;-86
2021/05/30 14:10:40;;;;;;;2.90;1.95;;;;;;;;;;5013153;28;20558;-83
2021/05/30 14:13:08;;;;;;;2.63;2.42;;;;;;;;;;5044729;28;20253;-85
2021/05/30 14:15:36;;;;;;;2.80;2.35;;;;;;;;;;5052876;28;20317;-85
2021/05/30 14:18:03;;;;;;;2.30;2.10;;;;;;;;;;5052681;28;20205;-84
2021/05/30 14:20:30;;;;;;;2.88;2.67;;;;;;;;;;5053165;28;20200;-84
2021/05/30 14:22:57;;;;;;;2.40;2.20;;;;;;;;;;5037825;28;20275;-85
2021/05/30 14:25:24;;;;;;;2.70;1.98;;;;;;;;;;5032721;28;20241;-85
2021/05/30 14:27:51;;;;;;;3.10;2.60;;;;;;;;;;5032892;28;20681;-84
2021/05/30 14:30:21;;;;;;;3.85;2.30;;;;;;;;;;5032709;28;20216;-85
2021/05/30 14:32:48;;;;;;;2.55;1.88;;;;;;;;;;5046441;28;20226;-84
2021/05/30 14:35:15;;;;;;;2.20;2.10;;;;;;;;;;5052381;28;20275;-85
2021/05/30 14:37:42;;;;;;;2.05;1.95;;;;;;;;;;5052166;28;20237;-85
2021/05/30 14:40:11;;;;;;;3.08;2.78;;;;;;;;;;5052757;28;20733;-86
2021/05/30 14:42:38;;;;;;;2.33;1.90;;;;;;;;;;5052298;28;20208;-85
2021/05/30 14:45:07;;;;;;;2.45;2.25;;;;;;;;;;5045002;28;20222;-85
2021/05/30 14:47:34;;;;;;;2.60;2.40;;;;;;;;;;5032012;28;20198;-85
2021/05/30 14:50:01;;;;;;;2.70;2.50;;;;;;;;;;5031992;28;20206;-84
2021/05/30 14:52:31;;;;;;;2.72;2.50;;;;;;;;;;5042649;28;20308;-84
2021/05/30 14:54:58;;;;;;;2.47;2.28;;;;;;;;;;5052331;28;20217;-85
2021/05/30 14:57:25;;;;;;;3.55;1.92;;;;;;;;;;5052727;28;20186;-84